»·PEaware :: N143VT KFLG-KPSP

N143VT :: KFLG-KPSP

FLIGHT INFORMATION

Flight Status: Arrived
Operator: Privately registered:
United States
More flights under this callsign
Pilot: Anonymous 16492 (16492)
Aircraft: SOCATA TBM-900
(TBM9)
More flights by this aircraft type
Origin: KFLG Flagstaff Pulliam
United States
Destination: KPSP Palm Springs Intl
United States
More flights between these airports :: More routes between these airports
Route: + EED CLOWD1
File this flight plan on PilotEdge
Remarks:
Altitude:
(Current/Filed)
22,000ft
Speed:
(Current/Filed)
330kts
Departed: 01-Nov-18 05:27 PM
Arrived: 01-Nov-18 06:33 PM
Distance/Time
Traveled:
246nm/1:05
Distance/Time
To Go:
Arrived

Flight Plot

Page will automatically refresh every two minutes.

Flight plan parsing failed; only flown route is shown


Map Options




Map Legend


Flown Route
Filed Route
Departure Airport
Arrival Airport
Navaid (VOR, NDB)
Fix

Horizontal Profiles

Position Reports

Time Latitude Longitude Heading Altitude Ground
Speed
01-Nov-18 16:27 35.135982 -111.676310 222 7014ft 0kts
01-Nov-18 16:28 35.135982 -111.676310 222 7014ft 0kts
01-Nov-18 16:29 35.135982 -111.676310 222 7014ft 0kts
01-Nov-18 16:30 35.135982 -111.676310 222 7014ft 0kts
01-Nov-18 16:31 35.135982 -111.676310 222 7014ft 0kts
01-Nov-18 16:32 35.135982 -111.676310 222 7014ft 0kts
01-Nov-18 16:33 35.135982 -111.676310 222 7014ft 0kts
01-Nov-18 16:34 35.135982 -111.676310 222 7014ft 0kts
01-Nov-18 16:35 35.135982 -111.676310 222 7014ft 0kts
01-Nov-18 16:37 35.135982 -111.676310 222 7014ft 0kts
01-Nov-18 16:38 35.135982 -111.676310 222 7014ft 0kts
01-Nov-18 16:39 35.135982 -111.676310 222 7014ft 0kts
01-Nov-18 16:40 35.135982 -111.676310 222 7014ft 0kts
01-Nov-18 16:41 35.135982 -111.676310 222 7014ft 0kts
01-Nov-18 16:42 35.135982 -111.676310 222 7014ft 0kts
01-Nov-18 16:43 35.135982 -111.676310 222 7014ft 0kts
01-Nov-18 16:44 35.135982 -111.676310 222 7014ft 0kts
01-Nov-18 16:45 35.135982 -111.676310 222 7014ft 0kts
01-Nov-18 16:46 35.135982 -111.676310 222 7014ft 0kts
01-Nov-18 16:47 35.135982 -111.676310 222 7014ft 0kts
01-Nov-18 16:48 35.135982 -111.676310 222 7014ft 0kts
01-Nov-18 16:49 35.135982 -111.676310 222 7014ft 0kts
01-Nov-18 16:50 35.135982 -111.676310 222 7014ft 0kts
01-Nov-18 16:51 35.135982 -111.676310 222 7014ft 0kts
01-Nov-18 16:52 35.135982 -111.676310 222 7014ft 0kts
01-Nov-18 16:53 35.135982 -111.676310 222 7014ft 0kts
01-Nov-18 16:54 35.135982 -111.676310 222 7014ft 0kts
01-Nov-18 16:55 35.135975 -111.676317 222 7014ft 0kts
01-Nov-18 16:56 35.135975 -111.676317 222 7014ft 0kts
01-Nov-18 16:57 35.135975 -111.676317 222 7014ft 0kts
01-Nov-18 16:58 35.135975 -111.676317 222 7014ft 0kts
01-Nov-18 16:59 35.135975 -111.676317 222 7014ft 0kts
01-Nov-18 17:00 35.135975 -111.676317 222 7014ft 0kts
01-Nov-18 17:01 35.135975 -111.676317 222 7014ft 0kts
01-Nov-18 17:02 35.135975 -111.676317 222 7014ft 0kts
01-Nov-18 17:03 35.135975 -111.676317 222 7014ft 0kts
01-Nov-18 17:04 35.135975 -111.676317 222 7014ft 0kts
01-Nov-18 17:05 35.135975 -111.676317 222 7014ft 0kts
01-Nov-18 17:06 35.135975 -111.676317 222 7014ft 0kts
01-Nov-18 17:07 35.135975 -111.676317 222 7014ft 0kts
01-Nov-18 17:08 35.135975 -111.676317 222 7014ft 0kts
01-Nov-18 17:09 35.135975 -111.676317 222 7014ft 0kts
01-Nov-18 17:10 35.135975 -111.676317 222 7014ft 0kts
01-Nov-18 17:11 35.135975 -111.676317 222 7014ft 0kts
01-Nov-18 17:12 35.135975 -111.676317 222 7014ft 0kts
01-Nov-18 17:13 35.135975 -111.676317 222 7014ft 0kts
01-Nov-18 17:14 35.135975 -111.676317 222 7014ft 0kts
01-Nov-18 17:15 35.135963 -111.676331 222 7014ft 0kts
01-Nov-18 17:16 35.135963 -111.676331 222 7014ft 0kts
01-Nov-18 17:17 35.135963 -111.676331 222 7014ft 0kts
01-Nov-18 17:18 35.135963 -111.676331 222 7014ft 0kts
01-Nov-18 17:19 35.135963 -111.676331 222 7014ft 0kts
01-Nov-18 17:20 35.135963 -111.676331 222 7014ft 0kts
01-Nov-18 17:21 35.135727 -111.676058 81 7014ft 5kts
01-Nov-18 17:22 35.137237 -111.674295 42 7014ft 8kts
01-Nov-18 17:23 35.139442 -111.671969 40 7014ft 12kts
01-Nov-18 17:24 35.142512 -111.668692 41 7014ft 15kts
01-Nov-18 17:25 35.145993 -111.664978 40 7014ft 17kts
01-Nov-18 17:26 35.149665 -111.661085 43 7014ft 16kts
01-Nov-18 17:27 35.149862 -111.660493 120 7014ft 0kts
01-Nov-18 17:28 35.149862 -111.660493 120 7014ft 0kts
01-Nov-18 17:29 35.149474 -111.659910 146 7014ft 7kts
01-Nov-18 17:30 35.130896 -111.678600 218 7803ft 141kts
01-Nov-18 17:31 35.086822 -111.681446 186 9226ft 204kts
01-Nov-18 17:32 35.026216 -111.689379 185 10399ft 227kts
01-Nov-18 17:33 34.963526 -111.697436 185 11889ft 229kts
01-Nov-18 17:34 34.899206 -111.705668 185 13092ft 246kts
01-Nov-18 17:35 34.864258 -111.752934 270 14165ft 230kts
01-Nov-18 17:36 34.861391 -111.828732 274 15246ft 233kts
01-Nov-18 17:37 34.859310 -111.907621 274 16222ft 236kts
01-Nov-18 17:38 34.857201 -111.988136 275 17083ft 239kts
01-Nov-18 17:39 34.855022 -112.069397 275 17818ft 242kts
01-Nov-18 17:40 34.852766 -112.151456 276 18467ft 245kts
01-Nov-18 17:41 34.850426 -112.234587 276 19041ft 247kts
01-Nov-18 17:42 34.848006 -112.318493 276 19545ft 249kts
01-Nov-18 17:43 34.845471 -112.403865 277 20562ft 253kts
01-Nov-18 17:44 34.842879 -112.489780 278 21593ft 256kts
01-Nov-18 17:45 34.840202 -112.577420 277 22222ft 269kts
01-Nov-18 17:46 34.837216 -112.671464 276 22218ft 287kts
01-Nov-18 17:47 34.834068 -112.767967 276 22216ft 292kts
01-Nov-18 17:48 34.830792 -112.866339 276 22216ft 293kts
01-Nov-18 17:49 34.827428 -112.965072 276 22215ft 293kts
01-Nov-18 17:50 34.824020 -113.062593 276 22214ft 292kts
01-Nov-18 17:51 34.820507 -113.160919 276 22203ft 291kts
01-Nov-18 17:52 34.816921 -113.259132 276 22192ft 291kts
01-Nov-18 17:53 34.813268 -113.357001 276 22188ft 291kts
01-Nov-18 17:53 34.810150 -113.438929 276 22188ft 291kts
01-Nov-18 17:54 34.806362 -113.536579 276 22188ft 291kts
01-Nov-18 17:56 34.801847 -113.650440 275 22188ft 291kts
01-Nov-18 17:56 34.798565 -113.731570 275 22188ft 291kts
01-Nov-18 17:57 34.794572 -113.828539 275 22173ft 292kts
01-Nov-18 17:58 34.790440 -113.926847 275 22143ft 292kts
01-Nov-18 17:59 34.786238 -114.025034 275 22111ft 293kts
01-Nov-18 18:00 34.781954 -114.123228 275 22087ft 292kts
01-Nov-18 18:01 34.777577 -114.221751 275 22066ft 292kts
01-Nov-18 18:02 34.773124 -114.320194 275 22067ft 292kts
01-Nov-18 18:03 34.768601 -114.418426 275 22079ft 291kts
01-Nov-18 18:04 34.740803 -114.511725 239 22093ft 317kts
01-Nov-18 18:05 34.685745 -114.595678 238 22086ft 319kts
01-Nov-18 18:06 34.639204 -114.666008 237 22086ft 319kts
01-Nov-18 18:07 34.586081 -114.746093 237 22090ft 319kts
01-Nov-18 18:08 34.531947 -114.827521 237 22091ft 320kts
01-Nov-18 18:09 34.476895 -114.910132 237 22092ft 320kts
01-Nov-18 18:10 34.421179 -114.993565 237 22092ft 320kts
01-Nov-18 18:11 34.365398 -115.076888 237 22093ft 320kts
01-Nov-18 18:12 34.309705 -115.159880 236 22093ft 319kts
01-Nov-18 18:13 34.254374 -115.242122 236 22110ft 318kts
01-Nov-18 18:14 34.199932 -115.322871 236 22154ft 318kts
01-Nov-18 18:15 34.145147 -115.403959 236 22152ft 319kts
01-Nov-18 18:16 34.087859 -115.488549 235 20129ft 323kts
01-Nov-18 18:17 34.032815 -115.569653 235 18071ft 311kts
01-Nov-18 18:18 33.978636 -115.649293 234 15998ft 305kts
01-Nov-18 18:19 33.930327 -115.720147 233 14116ft 300kts
01-Nov-18 18:20 33.911270 -115.810754 268 12032ft 283kts
01-Nov-18 18:21 33.905954 -115.890743 268 10933ft 267kts
01-Nov-18 18:22 33.876112 -115.960664 217 10928ft 254kts
01-Nov-18 18:23 33.821067 -116.005285 216 10315ft 256kts
01-Nov-18 18:24 33.764321 -116.050898 216 8908ft 226kts
01-Nov-18 18:25 33.716173 -116.089586 216 7477ft 198kts
01-Nov-18 18:26 33.668756 -116.127645 216 6274ft 223kts
01-Nov-18 18:27 33.665496 -116.189779 291 4325ft 197kts
01-Nov-18 18:28 33.680795 -116.239218 291 3940ft 151kts
01-Nov-18 18:29 33.695810 -116.286082 291 3951ft 151kts
01-Nov-18 18:30 33.713476 -116.333684 299 3560ft 179kts
01-Nov-18 18:31 33.738986 -116.384713 299 2941ft 160kts
01-Nov-18 18:32 33.763967 -116.433313 301 2764ft 166kts
01-Nov-18 18:33 33.788920 -116.470069 314 1612ft 134kts
01-Nov-18 18:34 33.813130 -116.492937 322 781ft 99kts
01-Nov-18 18:35 33.828208 -116.506661 289 480ft 20kts
01-Nov-18 18:36 33.826623 -116.506969 143 480ft 0kts
01-Nov-18 18:37 33.825516 -116.507194 222 480ft 12kts
01-Nov-18 18:38 33.825606 -116.508519 87 480ft 5kts
01-Nov-18 18:39 33.825631 -116.508326 77 480ft 0kts
01-Nov-18 18:40 33.825631 -116.508326 77 480ft 0kts
01-Nov-18 18:41 33.825631 -116.508326 77 480ft 0kts
01-Nov-18 18:42 33.825631 -116.508326 77 480ft 0kts
01-Nov-18 18:43 33.825630 -116.508325 79 477ft 0kts
01-Nov-18 18:44 33.825630 -116.508325 79 481ft 0kts
01-Nov-18 18:45 33.712402 -116.331525 299 3590ft 177kts

Navigation Log

Ident Type
Flight plan parsing failed, navigation log unavailable